sensor_id;sensor_type;location;lat;lon;timestamp;P1;durP1;ratioP1;P2;durP2;ratioP2
63965;SDS011;50151;52.030;5.350;2022-07-06T00:01:53;3.30;;;1.00;;
63965;SDS011;50151;52.030;5.350;2022-07-06T00:04:20;2.17;;;1.00;;
63965;SDS011;50151;52.030;5.350;2022-07-06T00:06:47;2.35;;;1.10;;
63965;SDS011;50151;52.030;5.350;2022-07-06T00:09:14;5.07;;;1.20;;
63965;SDS011;50151;52.030;5.350;2022-07-06T00:11:41;3.63;;;1.20;;
63965;SDS011;50151;52.030;5.350;2022-07-06T00:14:08;4.13;;;1.00;;
63965;SDS011;50151;52.030;5.350;2022-07-06T00:16:35;3.05;;;1.10;;
63965;SDS011;50151;52.030;5.350;2022-07-06T00:19:02;3.67;;;1.23;;
63965;SDS011;50151;52.030;5.350;2022-07-06T00:21:29;4.88;;;1.40;;
63965;SDS011;50151;52.030;5.350;2022-07-06T00:23:55;4.22;;;1.10;;
63965;SDS011;50151;52.030;5.350;2022-07-06T00:26:22;3.90;;;1.02;;
63965;SDS011;50151;52.030;5.350;2022-07-06T00:28:49;2.90;;;1.13;;
63965;SDS011;50151;52.030;5.350;2022-07-06T00:31:15;4.03;;;1.23;;
63965;SDS011;50151;52.030;5.350;2022-07-06T00:33:42;4.45;;;1.10;;
63965;SDS011;50151;52.030;5.350;2022-07-06T00:36:09;2.72;;;1.25;;
63965;SDS011;50151;52.030;5.350;2022-07-06T00:38:36;5.07;;;1.08;;
63965;SDS011;50151;52.030;5.350;2022-07-06T00:41:03;3.30;;;1.10;;
63965;SDS011;50151;52.030;5.350;2022-07-06T00:43:46;3.30;;;1.27;;
63965;SDS011;50151;52.030;5.350;2022-07-06T00:46:13;4.10;;;1.00;;
63965;SDS011;50151;52.030;5.350;2022-07-06T00:48:40;2.75;;;0.88;;
63965;SDS011;50151;52.030;5.350;2022-07-06T00:51:07;3.53;;;1.20;;
63965;SDS011;50151;52.030;5.350;2022-07-06T00:53:34;1.77;;;1.10;;
63965;SDS011;50151;52.030;5.350;2022-07-06T00:56:00;5.00;;;1.23;;
63965;SDS011;50151;52.030;5.350;2022-07-06T00:58:28;2.03;;;1.08;;
63965;SDS011;50151;52.030;5.350;2022-07-06T01:00:54;4.60;;;1.30;;
63965;SDS011;50151;52.030;5.350;2022-07-06T01:03:21;3.90;;;1.30;;
63965;SDS011;50151;52.030;5.350;2022-07-06T08:15:09;2.80;;;0.52;;
63965;SDS011;50151;52.030;5.350;2022-07-06T08:17:36;2.90;;;0.55;;
63965;SDS011;50151;52.030;5.350;2022-07-06T08:20:03;1.30;;;0.38;;
63965;SDS011;50151;52.030;5.350;2022-07-06T08:22:30;6.15;;;0.60;;
63965;SDS011;50151;52.030;5.350;2022-07-06T08:24:57;5.00;;;0.50;;
63965;SDS011;50151;52.030;5.350;2022-07-06T08:27:24;4.50;;;0.47;;
63965;SDS011;50151;52.030;5.350;2022-07-06T08:29:50;3.92;;;0.50;;
63965;SDS011;50151;52.030;5.350;2022-07-06T08:32:17;2.88;;;0.55;;
63965;SDS011;50151;52.030;5.350;2022-07-06T08:35:05;5.57;;;0.82;;
63965;SDS011;50151;52.030;5.350;2022-07-06T08:37:33;3.38;;;0.50;;
63965;SDS011;50151;52.030;5.350;2022-07-06T08:40:00;4.45;;;0.50;;
63965;SDS011;50151;52.030;5.350;2022-07-06T08:42:29;3.65;;;0.40;;
63965;SDS011;50151;52.030;5.350;2022-07-06T08:44:58;3.83;;;0.70;;
63965;SDS011;50151;52.030;5.350;2022-07-06T08:47:27;1.40;;;0.25;;
63965;SDS011;50151;52.030;5.350;2022-07-06T08:49:54;2.65;;;0.60;;
63965;SDS011;50151;52.030;5.350;2022-07-06T08:52:22;3.63;;;0.38;;
63965;SDS011;50151;52.030;5.350;2022-07-06T08:54:50;3.22;;;0.40;;
63965;SDS011;50151;52.030;5.350;2022-07-06T08:57:17;3.70;;;0.60;;
63965;SDS011;50151;52.030;5.350;2022-07-06T08:59:45;1.58;;;0.40;;
63965;SDS011;50151;52.030;5.350;2022-07-06T09:02:12;1.23;;;0.40;;
63965;SDS011;50151;52.030;5.350;2022-07-06T09:04:40;1.02;;;0.30;;
63965;SDS011;50151;52.030;5.350;2022-07-06T09:07:09;2.00;;;0.60;;
63965;SDS011;50151;52.030;5.350;2022-07-06T09:09:36;3.70;;;0.65;;
63965;SDS011;50151;52.030;5.350;2022-07-06T09:12:03;0.75;;;0.30;;
63965;SDS011;50151;52.030;5.350;2022-07-06T09:14:34;3.60;;;0.55;;
63965;SDS011;50151;52.030;5.350;2022-07-06T09:17:03;0.25;;;0.17;;
63965;SDS011;50151;52.030;5.350;2022-07-06T09:19:32;3.47;;;0.47;;
63965;SDS011;50151;52.030;5.350;2022-07-06T09:22:00;1.35;;;0.43;;
63965;SDS011;50151;52.030;5.350;2022-07-06T09:24:27;2.55;;;0.80;;
63965;SDS011;50151;52.030;5.350;2022-07-06T09:26:54;2.40;;;0.50;;
63965;SDS011;50151;52.030;5.350;2022-07-06T09:29:28;2.83;;;0.50;;
63965;SDS011;50151;52.030;5.350;2022-07-06T09:32:03;1.08;;;0.30;;
63965;SDS011;50151;52.030;5.350;2022-07-06T09:34:45;1.25;;;0.30;;
63965;SDS011;50151;52.030;5.350;2022-07-06T09:37:13;1.35;;;0.32;;
63965;SDS011;50151;52.030;5.350;2022-07-06T09:39:40;2.78;;;0.40;;
63965;SDS011;50151;52.030;5.350;2022-07-06T09:42:08;0.82;;;0.20;;
63965;SDS011;50151;52.030;5.350;2022-07-06T09:44:36;2.58;;;0.50;;
63965;SDS011;50151;52.030;5.350;2022-07-06T09:47:05;2.05;;;0.35;;
63965;SDS011;50151;52.030;5.350;2022-07-06T09:49:34;1.27;;;0.28;;
63965;SDS011;50151;52.030;5.350;2022-07-06T09:52:06;0.80;;;0.40;;
63965;SDS011;50151;52.030;5.350;2022-07-06T09:54:34;2.05;;;0.50;;
63965;SDS011;50151;52.030;5.350;2022-07-06T09:57:02;2.17;;;0.30;;
63965;SDS011;50151;52.030;5.350;2022-07-06T09:59:34;1.08;;;0.13;;
63965;SDS011;50151;52.030;5.350;2022-07-06T10:02:03;0.50;;;0.28;;
63965;SDS011;50151;52.030;5.350;2022-07-06T10:04:31;1.67;;;0.30;;
63965;SDS011;50151;52.030;5.350;2022-07-06T10:06:59;3.13;;;0.30;;
63965;SDS011;50151;52.030;5.350;2022-07-06T10:09:27;1.92;;;0.32;;
63965;SDS011;50151;52.030;5.350;2022-07-06T10:11:56;2.38;;;0.40;;
63965;SDS011;50151;52.030;5.350;2022-07-06T10:14:27;4.97;;;0.45;;
63965;SDS011;50151;52.030;5.350;2022-07-06T10:16:56;2.88;;;0.30;;
63965;SDS011;50151;52.030;5.350;2022-07-06T10:19:24;3.25;;;0.25;;
63965;SDS011;50151;52.030;5.350;2022-07-06T10:21:52;4.07;;;0.30;;
63965;SDS011;50151;52.030;5.350;2022-07-06T10:24:19;3.05;;;0.30;;
63965;SDS011;50151;52.030;5.350;2022-07-06T10:26:47;3.15;;;0.40;;
63965;SDS011;50151;52.030;5.350;2022-07-06T10:29:14;2.65;;;0.35;;
63965;SDS011;50151;52.030;5.350;2022-07-06T10:31:45;1.98;;;0.50;;
63965;SDS011;50151;52.030;5.350;2022-07-06T10:34:14;1.33;;;0.40;;
63965;SDS011;50151;52.030;5.350;2022-07-06T10:36:44;3.67;;;0.70;;
63965;SDS011;50151;52.030;5.350;2022-07-06T10:39:15;1.55;;;0.50;;
63965;SDS011;50151;52.030;5.350;2022-07-06T10:42:00;3.13;;;0.52;;
63965;SDS011;50151;52.030;5.350;2022-07-06T10:44:27;2.15;;;0.25;;
63965;SDS011;50151;52.030;5.350;2022-07-06T10:46:55;3.38;;;0.47;;
63965;SDS011;50151;52.030;5.350;2022-07-06T10:49:26;2.20;;;0.50;;
63965;SDS011;50151;52.030;5.350;2022-07-06T10:52:16;1.85;;;0.30;;
63965;SDS011;50151;52.030;5.350;2022-07-06T10:54:43;5.20;;;0.40;;
63965;SDS011;50151;52.030;5.350;2022-07-06T10:57:10;1.90;;;0.25;;
63965;SDS011;50151;52.030;5.350;2022-07-06T10:59:41;1.05;;;0.30;;
63965;SDS011;50151;52.030;5.350;2022-07-06T11:02:29;2.85;;;0.35;;
63965;SDS011;50151;52.030;5.350;2022-07-06T11:05:10;2.20;;;0.20;;
63965;SDS011;50151;52.030;5.350;2022-07-06T11:07:49;1.00;;;0.17;;
63965;SDS011;50151;52.030;5.350;2022-07-06T11:10:17;3.35;;;0.40;;
63965;SDS011;50151;52.030;5.350;2022-07-06T11:12:46;0.77;;;0.40;;
63965;SDS011;50151;52.030;5.350;2022-07-06T11:15:20;2.00;;;0.50;;
63965;SDS011;50151;52.030;5.350;2022-07-06T11:18:18;3.00;;;0.40;;
63965;SDS011;50151;52.030;5.350;2022-07-06T11:23:49;3.88;;;0.50;;
63965;SDS011;50151;52.030;5.350;2022-07-06T11:26:17;1.35;;;0.30;;
63965;SDS011;50151;52.030;5.350;2022-07-06T11:28:44;3.80;;;0.52;;
63965;SDS011;50151;52.030;5.350;2022-07-06T11:31:14;3.00;;;0.60;;
63965;SDS011;50151;52.030;5.350;2022-07-06T11:33:55;2.53;;;0.45;;
63965;SDS011;50151;52.030;5.350;2022-07-06T11:36:22;1.88;;;0.50;;
63965;SDS011;50151;52.030;5.350;2022-07-06T11:38:51;3.45;;;0.50;;
63965;SDS011;50151;52.030;5.350;2022-07-06T11:41:25;1.50;;;0.30;;
63965;SDS011;50151;52.030;5.350;2022-07-06T11:43:52;4.50;;;0.60;;
63965;SDS011;50151;52.030;5.350;2022-07-06T11:46:25;3.78;;;0.43;;
63965;SDS011;50151;52.030;5.350;2022-07-06T11:48:56;1.52;;;0.30;;
63965;SDS011;50151;52.030;5.350;2022-07-06T11:51:27;3.55;;;0.50;;
63965;SDS011;50151;52.030;5.350;2022-07-06T11:53:56;2.90;;;0.50;;
63965;SDS011;50151;52.030;5.350;2022-07-06T11:56:29;2.10;;;0.40;;
63965;SDS011;50151;52.030;5.350;2022-07-06T11:58:56;1.33;;;0.43;;
63965;SDS011;50151;52.030;5.350;2022-07-06T12:01:27;2.58;;;0.65;;
63965;SDS011;50151;52.030;5.350;2022-07-06T12:03:58;1.13;;;0.40;;
63965;SDS011;50151;52.030;5.350;2022-07-06T12:06:27;1.83;;;0.45;;
63965;SDS011;50151;52.030;5.350;2022-07-06T12:08:55;5.07;;;0.70;;
63965;SDS011;50151;52.030;5.350;2022-07-06T12:11:27;2.25;;;0.40;;
63965;SDS011;50151;52.030;5.350;2022-07-06T12:13:56;3.25;;;0.60;;
63965;SDS011;50151;52.030;5.350;2022-07-06T12:16:32;1.33;;;0.50;;
63965;SDS011;50151;52.030;5.350;2022-07-06T12:19:03;2.78;;;0.47;;
63965;SDS011;50151;52.030;5.350;2022-07-06T12:21:33;3.50;;;0.40;;
63965;SDS011;50151;52.030;5.350;2022-07-06T12:24:00;2.08;;;0.55;;
63965;SDS011;50151;52.030;5.350;2022-07-06T12:26:27;2.53;;;0.60;;
63965;SDS011;50151;52.030;5.350;2022-07-06T12:29:08;2.22;;;0.50;;
63965;SDS011;50151;52.030;5.350;2022-07-06T12:31:40;1.63;;;0.43;;
63965;SDS011;50151;52.030;5.350;2022-07-06T12:34:12;5.70;;;0.60;;
63965;SDS011;50151;52.030;5.350;2022-07-06T12:36:50;5.07;;;0.50;;
63965;SDS011;50151;52.030;5.350;2022-07-06T12:39:20;1.50;;;0.50;;
63965;SDS011;50151;52.030;5.350;2022-07-06T12:44:26;4.00;;;0.60;;
63965;SDS011;50151;52.030;5.350;2022-07-06T12:47:06;3.17;;;0.68;;
63965;SDS011;50151;52.030;5.350;2022-07-06T12:49:34;1.80;;;0.40;;
63965;SDS011;50151;52.030;5.350;2022-07-06T12:52:08;1.05;;;0.40;;
63965;SDS011;50151;52.030;5.350;2022-07-06T12:54:50;4.72;;;0.80;;
63965;SDS011;50151;52.030;5.350;2022-07-06T12:57:19;1.33;;;0.50;;
63965;SDS011;50151;52.030;5.350;2022-07-06T13:02:29;1.77;;;0.60;;
63965;SDS011;50151;52.030;5.350;2022-07-06T13:05:23;3.50;;;0.63;;
63965;SDS011;50151;52.030;5.350;2022-07-06T13:07:57;2.20;;;0.40;;
63965;SDS011;50151;52.030;5.350;2022-07-06T13:10:24;2.25;;;0.30;;
63965;SDS011;50151;52.030;5.350;2022-07-06T13:12:51;1.95;;;0.57;;
63965;SDS011;50151;52.030;5.350;2022-07-06T13:15:19;3.08;;;0.57;;
63965;SDS011;50151;52.030;5.350;2022-07-06T13:17:46;4.60;;;0.68;;
63965;SDS011;50151;52.030;5.350;2022-07-06T13:20:13;2.33;;;0.55;;
63965;SDS011;50151;52.030;5.350;2022-07-06T13:22:43;3.38;;;0.60;;
63965;SDS011;50151;52.030;5.350;2022-07-06T13:25:10;2.63;;;0.47;;
63965;SDS011;50151;52.030;5.350;2022-07-06T13:27:36;2.47;;;0.57;;
63965;SDS011;50151;52.030;5.350;2022-07-06T13:30:03;1.80;;;0.57;;
63965;SDS011;50151;52.030;5.350;2022-07-06T13:32:30;2.42;;;0.63;;
63965;SDS011;50151;52.030;5.350;2022-07-06T13:34:58;2.47;;;0.60;;
63965;SDS011;50151;52.030;5.350;2022-07-06T13:37:25;4.38;;;0.52;;
63965;SDS011;50151;52.030;5.350;2022-07-06T13:39:52;2.38;;;0.60;;
63965;SDS011;50151;52.030;5.350;2022-07-06T13:42:19;2.15;;;0.63;;
63965;SDS011;50151;52.030;5.350;2022-07-06T13:44:46;2.17;;;0.45;;
63965;SDS011;50151;52.030;5.350;2022-07-06T13:47:12;2.20;;;0.70;;
63965;SDS011;50151;52.030;5.350;2022-07-06T13:49:39;6.22;;;0.60;;
63965;SDS011;50151;52.030;5.350;2022-07-06T13:52:06;4.85;;;0.60;;
63965;SDS011;50151;52.030;5.350;2022-07-06T13:54:33;2.38;;;0.68;;
63965;SDS011;50151;52.030;5.350;2022-07-06T13:57:03;4.63;;;0.90;;
63965;SDS011;50151;52.030;5.350;2022-07-06T13:59:31;4.85;;;0.80;;
63965;SDS011;50151;52.030;5.350;2022-07-06T14:01:58;2.80;;;0.60;;
63965;SDS011;50151;52.030;5.350;2022-07-06T14:04:26;3.85;;;0.75;;
63965;SDS011;50151;52.030;5.350;2022-07-06T14:06:53;3.17;;;0.90;;
63965;SDS011;50151;52.030;5.350;2022-07-06T14:09:19;2.45;;;0.88;;
63965;SDS011;50151;52.030;5.350;2022-07-06T14:11:46;4.80;;;0.70;;
63965;SDS011;50151;52.030;5.350;2022-07-06T14:14:13;4.05;;;0.70;;
63965;SDS011;50151;52.030;5.350;2022-07-06T14:16:41;5.25;;;0.98;;
63965;SDS011;50151;52.030;5.350;2022-07-06T14:19:08;3.17;;;0.80;;
63965;SDS011;50151;52.030;5.350;2022-07-06T14:21:34;9.07;;;1.00;;
63965;SDS011;50151;52.030;5.350;2022-07-06T14:24:02;4.00;;;0.70;;
63965;SDS011;50151;52.030;5.350;2022-07-06T14:26:29;4.82;;;0.70;;
63965;SDS011;50151;52.030;5.350;2022-07-06T14:28:55;3.45;;;0.95;;
63965;SDS011;50151;52.030;5.350;2022-07-06T14:31:22;3.65;;;0.93;;
63965;SDS011;50151;52.030;5.350;2022-07-06T14:33:49;6.00;;;1.10;;
63965;SDS011;50151;52.030;5.350;2022-07-06T14:36:16;3.33;;;0.90;;
63965;SDS011;50151;52.030;5.350;2022-07-06T14:38:43;2.83;;;0.73;;
63965;SDS011;50151;52.030;5.350;2022-07-06T14:41:10;4.15;;;0.90;;
63965;SDS011;50151;52.030;5.350;2022-07-06T14:43:37;1.92;;;0.70;;
63965;SDS011;50151;52.030;5.350;2022-07-06T14:46:04;2.67;;;0.80;;
63965;SDS011;50151;52.030;5.350;2022-07-06T14:48:31;3.75;;;0.90;;
63965;SDS011;50151;52.030;5.350;2022-07-06T14:50:59;3.28;;;0.80;;
63965;SDS011;50151;52.030;5.350;2022-07-06T14:53:27;4.43;;;1.00;;
63965;SDS011;50151;52.030;5.350;2022-07-06T14:55:54;3.03;;;0.82;;
63965;SDS011;50151;52.030;5.350;2022-07-06T14:58:21;2.78;;;0.90;;
63965;SDS011;50151;52.030;5.350;2022-07-06T15:00:49;2.53;;;0.90;;
63965;SDS011;50151;52.030;5.350;2022-07-06T15:03:24;3.53;;;0.80;;
63965;SDS011;50151;52.030;5.350;2022-07-06T15:05:52;5.53;;;1.27;;
63965;SDS011;50151;52.030;5.350;2022-07-06T15:08:19;4.85;;;0.93;;
63965;SDS011;50151;52.030;5.350;2022-07-06T15:10:46;3.15;;;1.10;;
63965;SDS011;50151;52.030;5.350;2022-07-06T15:13:14;3.40;;;1.10;;
63965;SDS011;50151;52.030;5.350;2022-07-06T15:15:41;6.78;;;0.95;;
63965;SDS011;50151;52.030;5.350;2022-07-06T15:18:22;5.15;;;1.20;;
63965;SDS011;50151;52.030;5.350;2022-07-06T15:20:49;3.70;;;1.10;;
63965;SDS011;50151;52.030;5.350;2022-07-06T15:23:16;5.65;;;1.10;;
63965;SDS011;50151;52.030;5.350;2022-07-06T15:25:43;3.20;;;1.20;;
63965;SDS011;50151;52.030;5.350;2022-07-06T15:28:16;5.13;;;1.38;;
63965;SDS011;50151;52.030;5.350;2022-07-06T15:30:45;5.18;;;1.27;;
63965;SDS011;50151;52.030;5.350;2022-07-06T15:33:12;2.33;;;1.00;;
63965;SDS011;50151;52.030;5.350;2022-07-06T15:35:39;4.53;;;1.20;;
63965;SDS011;50151;52.030;5.350;2022-07-06T15:38:06;4.07;;;1.08;;
63965;SDS011;50151;52.030;5.350;2022-07-06T15:40:32;7.20;;;1.27;;
63965;SDS011;50151;52.030;5.350;2022-07-06T15:43:04;5.78;;;0.95;;
63965;SDS011;50151;52.030;5.350;2022-07-06T15:45:32;6.60;;;1.10;;
63965;SDS011;50151;52.030;5.350;2022-07-06T15:48:00;7.03;;;1.17;;
63965;SDS011;50151;52.030;5.350;2022-07-06T15:50:26;7.30;;;1.00;;
63965;SDS011;50151;52.030;5.350;2022-07-06T15:52:53;5.35;;;1.08;;
63965;SDS011;50151;52.030;5.350;2022-07-06T15:55:20;4.43;;;1.13;;
63965;SDS011;50151;52.030;5.350;2022-07-06T15:57:47;5.72;;;1.20;;
63965;SDS011;50151;52.030;5.350;2022-07-06T16:00:14;4.82;;;1.30;;
63965;SDS011;50151;52.030;5.350;2022-07-06T16:02:41;5.10;;;1.33;;
63965;SDS011;50151;52.030;5.350;2022-07-06T16:05:08;5.55;;;1.25;;
63965;SDS011;50151;52.030;5.350;2022-07-06T16:07:35;7.15;;;1.40;;
63965;SDS011;50151;52.030;5.350;2022-07-06T16:10:22;5.95;;;1.63;;
63965;SDS011;50151;52.030;5.350;2022-07-06T16:12:49;6.28;;;1.60;;
63965;SDS011;50151;52.030;5.350;2022-07-06T16:15:17;5.03;;;1.30;;
63965;SDS011;50151;52.030;5.350;2022-07-06T16:17:44;7.00;;;1.50;;
63965;SDS011;50151;52.030;5.350;2022-07-06T16:20:11;2.92;;;1.20;;
63965;SDS011;50151;52.030;5.350;2022-07-06T16:22:44;8.45;;;2.00;;
63965;SDS011;50151;52.030;5.350;2022-07-06T16:25:11;7.60;;;1.60;;
63965;SDS011;50151;52.030;5.350;2022-07-06T16:27:39;4.90;;;1.75;;
63965;SDS011;50151;52.030;5.350;2022-07-06T16:30:07;9.45;;;1.73;;
63965;SDS011;50151;52.030;5.350;2022-07-06T16:32:34;4.90;;;1.75;;
63965;SDS011;50151;52.030;5.350;2022-07-06T16:35:01;6.22;;;2.10;;
63965;SDS011;50151;52.030;5.350;2022-07-06T16:37:29;5.75;;;1.50;;
63965;SDS011;50151;52.030;5.350;2022-07-06T16:39:56;4.75;;;1.55;;
63965;SDS011;50151;52.030;5.350;2022-07-06T16:42:23;5.53;;;1.40;;
63965;SDS011;50151;52.030;5.350;2022-07-06T16:44:49;3.05;;;1.48;;
63965;SDS011;50151;52.030;5.350;2022-07-06T16:47:16;7.70;;;1.70;;
63965;SDS011;50151;52.030;5.350;2022-07-06T16:49:43;8.73;;;1.45;;
63965;SDS011;50151;52.030;5.350;2022-07-06T16:52:11;2.42;;;1.27;;
63965;SDS011;50151;52.030;5.350;2022-07-06T16:54:37;7.30;;;1.48;;
63965;SDS011;50151;52.030;5.350;2022-07-06T16:57:04;5.75;;;1.30;;
63965;SDS011;50151;52.030;5.350;2022-07-06T16:59:31;4.22;;;1.50;;
63965;SDS011;50151;52.030;5.350;2022-07-06T17:01:58;4.43;;;1.30;;
63965;SDS011;50151;52.030;5.350;2022-07-06T17:04:25;4.00;;;1.13;;
63965;SDS011;50151;52.030;5.350;2022-07-06T17:06:52;4.15;;;1.40;;
63965;SDS011;50151;52.030;5.350;2022-07-06T17:09:19;5.43;;;1.35;;
63965;SDS011;50151;52.030;5.350;2022-07-06T17:11:46;3.55;;;1.20;;
63965;SDS011;50151;52.030;5.350;2022-07-06T17:14:13;5.95;;;1.42;;
63965;SDS011;50151;52.030;5.350;2022-07-06T17:16:40;5.15;;;1.30;;
63965;SDS011;50151;52.030;5.350;2022-07-06T17:19:07;8.55;;;1.75;;
63965;SDS011;50151;52.030;5.350;2022-07-06T17:21:34;5.03;;;1.67;;
63965;SDS011;50151;52.030;5.350;2022-07-06T17:24:00;5.30;;;1.50;;
63965;SDS011;50151;52.030;5.350;2022-07-06T17:26:27;4.85;;;1.60;;
63965;SDS011;50151;52.030;5.350;2022-07-06T17:28:54;8.23;;;1.60;;
63965;SDS011;50151;52.030;5.350;2022-07-06T17:31:22;5.53;;;1.70;;
63965;SDS011;50151;52.030;5.350;2022-07-06T17:33:49;2.38;;;1.13;;
63965;SDS011;50151;52.030;5.350;2022-07-06T17:36:16;3.88;;;1.55;;
63965;SDS011;50151;52.030;5.350;2022-07-06T17:38:43;7.47;;;1.77;;
63965;SDS011;50151;52.030;5.350;2022-07-06T17:41:10;8.50;;;1.52;;
63965;SDS011;50151;52.030;5.350;2022-07-06T17:43:36;5.03;;;1.80;;
63965;SDS011;50151;52.030;5.350;2022-07-06T17:46:14;6.00;;;1.60;;
63965;SDS011;50151;52.030;5.350;2022-07-06T17:48:41;5.82;;;1.50;;
63965;SDS011;50151;52.030;5.350;2022-07-06T17:51:08;3.80;;;1.40;;
63965;SDS011;50151;52.030;5.350;2022-07-06T17:53:34;5.75;;;1.50;;
63965;SDS011;50151;52.030;5.350;2022-07-06T17:56:01;5.55;;;1.23;;
63965;SDS011;50151;52.030;5.350;2022-07-06T17:58:28;2.75;;;1.17;;
63965;SDS011;50151;52.030;5.350;2022-07-06T18:00:55;4.70;;;1.55;;
63965;SDS011;50151;52.030;5.350;2022-07-06T18:03:24;4.70;;;1.00;;
63965;SDS011;50151;52.030;5.350;2022-07-06T18:05:52;5.28;;;0.90;;
63965;SDS011;50151;52.030;5.350;2022-07-06T18:08:19;2.75;;;1.10;;
63965;SDS011;50151;52.030;5.350;2022-07-06T18:10:46;3.30;;;1.10;;
63965;SDS011;50151;52.030;5.350;2022-07-06T18:13:13;3.88;;;1.05;;
63965;SDS011;50151;52.030;5.350;2022-07-06T18:15:40;13.75;;;1.48;;
63965;SDS011;50151;52.030;5.350;2022-07-06T18:18:07;3.53;;;1.10;;
63965;SDS011;50151;52.030;5.350;2022-07-06T18:20:34;2.10;;;0.70;;
63965;SDS011;50151;52.030;5.350;2022-07-06T18:23:01;2.70;;;0.90;;
63965;SDS011;50151;52.030;5.350;2022-07-06T18:25:29;2.78;;;0.85;;
63965;SDS011;50151;52.030;5.350;2022-07-06T18:27:56;4.32;;;0.95;;
63965;SDS011;50151;52.030;5.350;2022-07-06T18:30:22;3.55;;;0.90;;
63965;SDS011;50151;52.030;5.350;2022-07-06T18:32:49;5.22;;;1.13;;
63965;SDS011;50151;52.030;5.350;2022-07-06T18:35:18;3.42;;;0.88;;
63965;SDS011;50151;52.030;5.350;2022-07-06T18:37:45;4.88;;;1.00;;
63965;SDS011;50151;52.030;5.350;2022-07-06T18:40:12;4.60;;;1.27;;
63965;SDS011;50151;52.030;5.350;2022-07-06T18:42:40;5.53;;;1.00;;
63965;SDS011;50151;52.030;5.350;2022-07-06T18:45:08;4.75;;;0.90;;
63965;SDS011;50151;52.030;5.350;2022-07-06T18:47:36;2.90;;;1.10;;
63965;SDS011;50151;52.030;5.350;2022-07-06T18:50:03;2.63;;;1.10;;
63965;SDS011;50151;52.030;5.350;2022-07-06T18:52:30;4.97;;;1.25;;
63965;SDS011;50151;52.030;5.350;2022-07-06T18:55:01;3.55;;;1.20;;
63965;SDS011;50151;52.030;5.350;2022-07-06T18:57:31;2.25;;;1.00;;
63965;SDS011;50151;52.030;5.350;2022-07-06T18:59:58;3.58;;;1.20;;
63965;SDS011;50151;52.030;5.350;2022-07-06T19:02:26;1.23;;;0.82;;
63965;SDS011;50151;52.030;5.350;2022-07-06T19:04:53;7.68;;;1.20;;
63965;SDS011;50151;52.030;5.350;2022-07-06T19:07:20;1.55;;;0.90;;
63965;SDS011;50151;52.030;5.350;2022-07-06T19:09:48;3.63;;;1.40;;
63965;SDS011;50151;52.030;5.350;2022-07-06T19:12:15;6.07;;;1.20;;
63965;SDS011;50151;52.030;5.350;2022-07-06T19:14:42;2.40;;;0.93;;
63965;SDS011;50151;52.030;5.350;2022-07-06T19:17:09;3.28;;;0.90;;
63965;SDS011;50151;52.030;5.350;2022-07-06T19:19:36;3.20;;;1.05;;
63965;SDS011;50151;52.030;5.350;2022-07-06T19:22:03;1.90;;;1.10;;
63965;SDS011;50151;52.030;5.350;2022-07-06T19:24:30;4.82;;;1.20;;
63965;SDS011;50151;52.030;5.350;2022-07-06T19:26:57;2.80;;;1.30;;
63965;SDS011;50151;52.030;5.350;2022-07-06T19:29:24;3.78;;;1.27;;
63965;SDS011;50151;52.030;5.350;2022-07-06T19:31:51;3.13;;;1.00;;
63965;SDS011;50151;52.030;5.350;2022-07-06T19:34:18;4.32;;;1.42;;
63965;SDS011;50151;52.030;5.350;2022-07-06T19:36:45;3.05;;;1.27;;
63965;SDS011;50151;52.030;5.350;2022-07-06T19:39:17;3.20;;;1.35;;
63965;SDS011;50151;52.030;5.350;2022-07-06T19:41:44;4.25;;;1.38;;
63965;SDS011;50151;52.030;5.350;2022-07-06T19:44:11;5.90;;;1.48;;
63965;SDS011;50151;52.030;5.350;2022-07-06T19:46:39;1.92;;;1.15;;
63965;SDS011;50151;52.030;5.350;2022-07-06T19:49:06;3.13;;;1.73;;
63965;SDS011;50151;52.030;5.350;2022-07-06T19:51:33;3.22;;;1.50;;
63965;SDS011;50151;52.030;5.350;2022-07-06T19:53:59;3.13;;;1.50;;
63965;SDS011;50151;52.030;5.350;2022-07-06T19:56:26;3.97;;;1.67;;
63965;SDS011;50151;52.030;5.350;2022-07-06T19:58:53;4.45;;;1.60;;
63965;SDS011;50151;52.030;5.350;2022-07-06T20:01:19;4.53;;;1.70;;
63965;SDS011;50151;52.030;5.350;2022-07-06T20:03:46;6.30;;;2.00;;
63965;SDS011;50151;52.030;5.350;2022-07-06T20:06:13;4.15;;;1.95;;
63965;SDS011;50151;52.030;5.350;2022-07-06T20:08:40;3.35;;;1.73;;
63965;SDS011;50151;52.030;5.350;2022-07-06T20:11:08;4.22;;;1.90;;
63965;SDS011;50151;52.030;5.350;2022-07-06T20:13:34;4.90;;;2.00;;
63965;SDS011;50151;52.030;5.350;2022-07-06T20:16:01;3.63;;;1.73;;
63965;SDS011;50151;52.030;5.350;2022-07-06T20:18:28;3.55;;;1.50;;
63965;SDS011;50151;52.030;5.350;2022-07-06T20:20:56;3.03;;;1.60;;
63965;SDS011;50151;52.030;5.350;2022-07-06T20:23:24;3.05;;;1.65;;
63965;SDS011;50151;52.030;5.350;2022-07-06T20:25:53;4.30;;;1.95;;
63965;SDS011;50151;52.030;5.350;2022-07-06T20:28:20;4.97;;;1.70;;
63965;SDS011;50151;52.030;5.350;2022-07-06T20:30:47;5.93;;;1.60;;
63965;SDS011;50151;52.030;5.350;2022-07-06T20:33:14;5.07;;;1.65;;
63965;SDS011;50151;52.030;5.350;2022-07-06T20:35:41;4.05;;;1.65;;
63965;SDS011;50151;52.030;5.350;2022-07-06T20:38:07;3.42;;;1.90;;
63965;SDS011;50151;52.030;5.350;2022-07-06T20:40:35;3.55;;;1.73;;
63965;SDS011;50151;52.030;5.350;2022-07-06T20:43:02;4.25;;;1.90;;
63965;SDS011;50151;52.030;5.350;2022-07-06T20:45:47;7.15;;;1.95;;
63965;SDS011;50151;52.030;5.350;2022-07-06T20:48:14;4.45;;;2.30;;
63965;SDS011;50151;52.030;5.350;2022-07-06T20:50:41;5.93;;;1.90;;
63965;SDS011;50151;52.030;5.350;2022-07-06T20:53:08;4.40;;;1.92;;
63965;SDS011;50151;52.030;5.350;2022-07-06T20:55:35;6.00;;;1.98;;
63965;SDS011;50151;52.030;5.350;2022-07-06T20:58:03;3.20;;;1.90;;
63965;SDS011;50151;52.030;5.350;2022-07-06T21:00:31;2.75;;;1.83;;
63965;SDS011;50151;52.030;5.350;2022-07-06T21:02:58;3.50;;;2.10;;
63965;SDS011;50151;52.030;5.350;2022-07-06T21:05:25;5.05;;;2.30;;
63965;SDS011;50151;52.030;5.350;2022-07-06T21:07:51;9.15;;;2.53;;
63965;SDS011;50151;52.030;5.350;2022-07-06T21:10:18;3.28;;;2.53;;
63965;SDS011;50151;52.030;5.350;2022-07-06T21:12:45;6.30;;;2.75;;
63965;SDS011;50151;52.030;5.350;2022-07-06T21:15:12;5.32;;;2.50;;
